sensor_id;sensor_type;location;lat;lon;timestamp;pressure;altitude;pressure_sealevel;temperature;humidity
9035;BME280;4552;43.422;24.592;2024-03-02T02:07:14;99519.56;;;9.03;100.00
9035;BME280;4552;43.422;24.592;2024-03-02T02:09:41;99503.88;;;9.04;100.00
9035;BME280;4552;43.422;24.592;2024-03-02T02:12:09;99511.66;;;9.06;100.00
9035;BME280;4552;43.422;24.592;2024-03-02T02:14:36;99507.41;;;9.00;100.00
9035;BME280;4552;43.422;24.592;2024-03-02T02:17:04;99510.03;;;8.97;100.00
9035;BME280;4552;43.422;24.592;2024-03-02T02:19:31;99512.56;;;9.05;100.00
9035;BME280;4552;43.422;24.592;2024-03-02T02:29:14;99511.59;;;9.10;100.00
9035;BME280;4552;43.422;24.592;2024-03-02T02:31:41;99515.16;;;9.06;100.00
9035;BME280;4552;43.422;24.592;2024-03-02T02:34:08;99505.75;;;8.93;100.00
9035;BME280;4552;43.422;24.592;2024-03-02T02:36:38;99515.94;;;9.11;100.00
9035;BME280;4552;43.422;24.592;2024-03-02T02:39:06;99512.81;;;8.87;100.00
9035;BME280;4552;43.422;24.592;2024-03-02T02:41:36;99510.34;;;8.76;100.00
9035;BME280;4552;43.422;24.592;2024-03-02T02:44:03;99506.84;;;8.78;100.00
9035;BME280;4552;43.422;24.592;2024-03-02T02:46:31;99498.88;;;8.89;100.00
9035;BME280;4552;43.422;24.592;2024-03-02T02:48:58;99509.09;;;9.04;100.00
9035;BME280;4552;43.422;24.592;2024-03-02T02:51:25;99515.13;;;9.09;100.00
9035;BME280;4552;43.422;24.592;2024-03-02T02:53:52;99512.75;;;8.90;100.00
9035;BME280;4552;43.422;24.592;2024-03-02T02:56:19;99515.34;;;8.91;100.00
9035;BME280;4552;43.422;24.592;2024-03-02T02:58:46;99509.94;;;9.06;100.00
9035;BME280;4552;43.422;24.592;2024-03-02T03:01:13;99510.03;;;8.97;100.00
9035;BME280;4552;43.422;24.592;2024-03-02T03:03:41;99503.25;;;8.86;100.00
9035;BME280;4552;43.422;24.592;2024-03-02T03:06:08;99510.16;;;8.88;100.00
9035;BME280;4552;43.422;24.592;2024-03-02T03:08:35;99507.47;;;8.94;100.00
9035;BME280;4552;43.422;24.592;2024-03-02T03:11:02;99501.34;;;8.98;100.00
9035;BME280;4552;43.422;24.592;2024-03-02T03:13:29;99513.31;;;9.11;100.00
9035;BME280;4552;43.422;24.592;2024-03-02T03:15:56;99496.06;;;9.01;100.00
9035;BME280;4552;43.422;24.592;2024-03-02T03:18:23;99516.19;;;8.93;100.00
9035;BME280;4552;43.422;24.592;2024-03-02T03:57:50;99528.03;;;8.53;100.00
9035;BME280;4552;43.422;24.592;2024-03-02T04:00:18;99534.13;;;8.52;100.00
9035;BME280;4552;43.422;24.592;2024-03-02T04:02:44;99530.47;;;8.68;100.00
9035;BME280;4552;43.422;24.592;2024-03-02T04:05:11;99523.53;;;8.65;100.00
9035;BME280;4552;43.422;24.592;2024-03-02T04:11:15;99526.19;;;8.61;100.00
9035;BME280;4552;43.422;24.592;2024-03-02T04:13:43;99519.31;;;8.57;100.00
9035;BME280;4552;43.422;24.592;2024-03-02T04:16:10;99502.84;;;8.50;100.00
9035;BME280;4552;43.422;24.592;2024-03-02T04:18:37;99524.47;;;8.61;100.00
9035;BME280;4552;43.422;24.592;2024-03-02T04:21:05;99513.94;;;8.69;100.00
9035;BME280;4552;43.422;24.592;2024-03-02T04:23:32;99519.25;;;8.60;100.00
9035;BME280;4552;43.422;24.592;2024-03-02T04:25:59;99524.47;;;8.60;100.00
9035;BME280;4552;43.422;24.592;2024-03-02T04:28:26;99520.94;;;8.64;100.00
9035;BME280;4552;43.422;24.592;2024-03-02T04:30:54;99518.38;;;8.61;100.00
9035;BME280;4552;43.422;24.592;2024-03-02T04:33:21;99525.19;;;8.74;100.00
9035;BME280;4552;43.422;24.592;2024-03-02T04:35:48;99507.13;;;8.56;100.00
9035;BME280;4552;43.422;24.592;2024-03-02T04:38:15;99525.22;;;8.71;100.00
9035;BME280;4552;43.422;24.592;2024-03-02T04:40:42;99529.50;;;8.75;100.00
9035;BME280;4552;43.422;24.592;2024-03-02T04:43:09;99540.78;;;8.77;100.00
9035;BME280;4552;43.422;24.592;2024-03-02T04:45:37;99539.03;;;8.76;100.00
9035;BME280;4552;43.422;24.592;2024-03-02T04:48:07;99544.16;;;8.83;100.00
9035;BME280;4552;43.422;24.592;2024-03-02T05:00:39;99533.03;;;8.71;100.00
9035;BME280;4552;43.422;24.592;2024-03-02T05:03:07;99552.00;;;8.82;100.00
9035;BME280;4552;43.422;24.592;2024-03-02T05:12:18;99549.50;;;8.73;100.00
9035;BME280;4552;43.422;24.592;2024-03-02T05:15:21;99557.31;;;8.76;100.00
9035;BME280;4552;43.422;24.592;2024-03-02T05:17:48;99554.56;;;8.85;100.00
9035;BME280;4552;43.422;24.592;2024-03-02T05:20:16;99561.50;;;8.89;100.00
9035;BME280;4552;43.422;24.592;2024-03-02T05:22:43;99536.56;;;8.67;100.00
9035;BME280;4552;43.422;24.592;2024-03-02T05:25:10;99552.91;;;8.81;100.00
9035;BME280;4552;43.422;24.592;2024-03-02T05:27:37;99560.66;;;8.87;100.00
9035;BME280;4552;43.422;24.592;2024-03-02T05:30:05;99540.00;;;8.69;100.00
9035;BME280;4552;43.422;24.592;2024-03-02T05:32:33;99554.63;;;8.82;100.00
9035;BME280;4552;43.422;24.592;2024-03-02T05:35:00;99551.31;;;8.71;100.00
9035;BME280;4552;43.422;24.592;2024-03-02T07:32:03;99610.06;;;9.61;100.00
9035;BME280;4552;43.422;24.592;2024-03-02T07:34:30;99599.84;;;9.46;100.00
9035;BME280;4552;43.422;24.592;2024-03-02T08:27:26;99634.47;;;10.15;100.00
9035;BME280;4552;43.422;24.592;2024-03-02T08:29:53;99620.25;;;10.32;100.00
9035;BME280;4552;43.422;24.592;2024-03-02T08:32:20;99635.72;;;10.44;100.00
9035;BME280;4552;43.422;24.592;2024-03-02T08:34:47;99640.44;;;10.24;100.00
9035;BME280;4552;43.422;24.592;2024-03-02T10:58:50;99621.28;;;10.22;100.00
9035;BME280;4552;43.422;24.592;2024-03-02T11:01:21;99607.16;;;10.32;100.00
9035;BME280;4552;43.422;24.592;2024-03-02T11:03:48;99588.84;;;10.32;100.00
9035;BME280;4552;43.422;24.592;2024-03-02T11:06:16;99594.53;;;10.56;100.00
9035;BME280;4552;43.422;24.592;2024-03-02T11:22:12;99603.47;;;10.42;100.00
9035;BME280;4552;43.422;24.592;2024-03-02T11:24:47;99620.31;;;10.28;100.00
9035;BME280;4552;43.422;24.592;2024-03-02T11:30:51;99621.00;;;10.39;100.00
9035;BME280;4552;43.422;24.592;2024-03-02T11:33:25;99640.09;;;10.42;100.00
9035;BME280;4552;43.422;24.592;2024-03-02T11:35:56;99614.78;;;10.44;100.00
9035;BME280;4552;43.422;24.592;2024-03-02T11:38:30;99614.53;;;10.58;100.00
9035;BME280;4552;43.422;24.592;2024-03-02T11:40:59;99623.09;;;10.66;100.00
9035;BME280;4552;43.422;24.592;2024-03-02T11:43:28;99622.22;;;10.66;100.00
9035;BME280;4552;43.422;24.592;2024-03-02T11:45:58;99605.84;;;10.54;100.00
9035;BME280;4552;43.422;24.592;2024-03-02T11:48:25;99610.09;;;10.62;100.00
9035;BME280;4552;43.422;24.592;2024-03-02T11:50:52;99611.88;;;10.60;100.00
9035;BME280;4552;43.422;24.592;2024-03-02T11:53:20;99597.50;;;10.82;100.00
9035;BME280;4552;43.422;24.592;2024-03-02T11:55:49;99602.28;;;10.60;100.00
9035;BME280;4552;43.422;24.592;2024-03-02T11:58:17;99598.41;;;10.79;100.00
9035;BME280;4552;43.422;24.592;2024-03-02T12:00:46;99588.50;;;10.50;100.00
9035;BME280;4552;43.422;24.592;2024-03-02T12:03:13;99586.13;;;10.38;100.00
9035;BME280;4552;43.422;24.592;2024-03-02T12:05:42;99582.25;;;10.57;100.00
9035;BME280;4552;43.422;24.592;2024-03-02T12:31:43;99611.38;;;10.84;100.00
9035;BME280;4552;43.422;24.592;2024-03-02T12:34:12;99616.75;;;10.78;100.00
9035;BME280;4552;43.422;24.592;2024-03-02T12:36:40;99643.34;;;10.57;100.00
9035;BME280;4552;43.422;24.592;2024-03-02T12:39:08;99635.78;;;10.86;100.00
9035;BME280;4552;43.422;24.592;2024-03-02T12:41:36;99630.75;;;10.77;100.00
9035;BME280;4552;43.422;24.592;2024-03-02T12:44:04;99640.28;;;10.79;100.00
9035;BME280;4552;43.422;24.592;2024-03-02T12:46:31;99647.13;;;10.88;100.00
9035;BME280;4552;43.422;24.592;2024-03-02T12:49:07;99634.81;;;10.90;100.00
9035;BME280;4552;43.422;24.592;2024-03-02T12:51:35;99629.34;;;11.03;100.00
9035;BME280;4552;43.422;24.592;2024-03-02T12:57:25;99642.22;;;11.14;100.00
9035;BME280;4552;43.422;24.592;2024-03-02T12:59:57;99646.63;;;11.12;100.00
9035;BME280;4552;43.422;24.592;2024-03-02T13:02:28;99645.63;;;11.16;100.00
9035;BME280;4552;43.422;24.592;2024-03-02T13:04:58;99635.38;;;11.46;100.00
9035;BME280;4552;43.422;24.592;2024-03-02T13:07:25;99642.41;;;11.05;100.00
9035;BME280;4552;43.422;24.592;2024-03-02T13:09:53;99636.63;;;10.88;100.00
9035;BME280;4552;43.422;24.592;2024-03-02T13:12:22;99629.91;;;10.75;100.00
9035;BME280;4552;43.422;24.592;2024-03-02T13:14:50;99639.38;;;10.82;100.00
9035;BME280;4552;43.422;24.592;2024-03-02T13:17:18;99637.50;;;10.87;100.00
9035;BME280;4552;43.422;24.592;2024-03-02T13:19:52;99644.75;;;10.74;100.00
9035;BME280;4552;43.422;24.592;2024-03-02T13:43:02;99634.81;;;10.90;100.00
9035;BME280;4552;43.422;24.592;2024-03-02T13:45:30;99635.47;;;11.01;100.00
9035;BME280;4552;43.422;24.592;2024-03-02T13:47:57;99632.63;;;10.69;100.00
9035;BME280;4552;43.422;24.592;2024-03-02T13:50:24;99639.38;;;10.82;100.00
9035;BME280;4552;43.422;24.592;2024-03-02T13:52:51;99634.16;;;10.82;100.00
9035;BME280;4552;43.422;24.592;2024-03-02T13:55:18;99636.06;;;10.72;100.00
9035;BME280;4552;43.422;24.592;2024-03-02T13:57:46;99659.06;;;11.01;100.00
9035;BME280;4552;43.422;24.592;2024-03-02T14:00:17;99651.50;;;11.28;100.00
9035;BME280;4552;43.422;24.592;2024-03-02T14:02:45;99649.81;;;11.26;100.00
9035;BME280;4552;43.422;24.592;2024-03-02T14:05:15;99661.88;;;11.33;100.00
9035;BME280;4552;43.422;24.592;2024-03-02T14:07:42;99650.38;;;11.40;100.00
9035;BME280;4552;43.422;24.592;2024-03-02T14:10:10;99659.94;;;11.42;100.00
9035;BME280;4552;43.422;24.592;2024-03-02T14:12:37;99641.09;;;11.25;100.00
9035;BME280;4552;43.422;24.592;2024-03-02T14:15:05;99654.25;;;11.22;100.00
9035;BME280;4552;43.422;24.592;2024-03-02T14:17:34;99646.66;;;11.10;100.00
9035;BME280;4552;43.422;24.592;2024-03-02T14:20:01;99655.59;;;11.00;100.00
9035;BME280;4552;43.422;24.592;2024-03-02T14:59:31;99650.06;;;10.21;100.00
9035;BME280;4552;43.422;24.592;2024-03-02T15:01:58;99643.84;;;10.29;100.00
9035;BME280;4552;43.422;24.592;2024-03-02T15:04:25;99654.47;;;10.20;100.00
9035;BME280;4552;43.422;24.592;2024-03-02T15:06:52;99649.94;;;10.30;100.00
9035;BME280;4552;43.422;24.592;2024-03-02T15:12:40;99656.50;;;10.52;100.00
9035;BME280;4552;43.422;24.592;2024-03-02T15:15:09;99660.75;;;10.57;100.00
9035;BME280;4552;43.422;24.592;2024-03-02T15:17:39;99662.38;;;10.65;100.00
9035;BME280;4552;43.422;24.592;2024-03-02T15:20:08;99664.81;;;10.75;100.00
9035;BME280;4552;43.422;24.592;2024-03-02T15:32:42;99692.31;;;10.48;100.00
9035;BME280;4552;43.422;24.592;2024-03-02T15:35:09;99685.47;;;10.41;100.00
9035;BME280;4552;43.422;24.592;2024-03-02T15:51:15;99691.69;;;10.36;100.00
9035;BME280;4552;43.422;24.592;2024-03-02T15:53:42;99686.72;;;10.19;100.00
9035;BME280;4552;43.422;24.592;2024-03-02T15:56:10;99702.22;;;10.33;100.00
9035;BME280;4552;43.422;24.592;2024-03-02T15:58:37;99709.25;;;10.28;100.00
9035;BME280;4552;43.422;24.592;2024-03-02T16:01:04;99718.84;;;10.27;100.00
9035;BME280;4552;43.422;24.592;2024-03-02T16:03:32;99722.50;;;10.17;100.00
9035;BME280;4552;43.422;24.592;2024-03-02T16:05:59;99721.69;;;10.14;100.00
9035;BME280;4552;43.422;24.592;2024-03-02T16:08:27;99722.50;;;10.17;100.00
9035;BME280;4552;43.422;24.592;2024-03-02T16:10:54;99717.31;;;10.14;100.00
9035;BME280;4552;43.422;24.592;2024-03-02T16:13:22;99728.69;;;10.12;100.00
9035;BME280;4552;43.422;24.592;2024-03-02T16:15:50;99719.03;;;10.17;100.00
9035;BME280;4552;43.422;24.592;2024-03-02T16:18:17;99717.28;;;10.17;100.00
9035;BME280;4552;43.422;24.592;2024-03-02T16:20:44;99732.84;;;10.25;100.00
9035;BME280;4552;43.422;24.592;2024-03-02T16:23:11;99726.88;;;10.17;100.00
9035;BME280;4552;43.422;24.592;2024-03-02T16:25:39;99731.25;;;10.15;100.00
9035;BME280;4552;43.422;24.592;2024-03-02T16:31:28;99739.94;;;10.17;100.00
9035;BME280;4552;43.422;24.592;2024-03-02T16:33:55;99741.78;;;10.10;100.00
9035;BME280;4552;43.422;24.592;2024-03-02T16:36:22;99755.69;;;10.14;100.00
9035;BME280;4552;43.422;24.592;2024-03-02T16:38:49;99749.69;;;10.04;100.00
9035;BME280;4552;43.422;24.592;2024-03-02T16:41:17;99764.41;;;10.14;100.00
9035;BME280;4552;43.422;24.592;2024-03-02T16:43:50;99753.97;;;10.13;100.00
9035;BME280;4552;43.422;24.592;2024-03-02T16:46:17;99751.44;;;10.05;100.00
9035;BME280;4552;43.422;24.592;2024-03-02T16:48:51;99764.53;;;10.02;100.00
9035;BME280;4552;43.422;24.592;2024-03-02T16:51:22;99766.44;;;9.91;100.00
9035;BME280;4552;43.422;24.592;2024-03-02T16:53:51;99761.25;;;9.88;100.00
9035;BME280;4552;43.422;24.592;2024-03-02T16:56:37;99759.66;;;9.77;100.00
9035;BME280;4552;43.422;24.592;2024-03-02T16:59:04;99758.03;;;9.68;100.00
9035;BME280;4552;43.422;24.592;2024-03-02T17:01:41;99756.38;;;9.64;100.00
9035;BME280;4552;43.422;24.592;2024-03-02T17:04:10;99775.53;;;9.63;100.00
9035;BME280;4552;43.422;24.592;2024-03-02T17:06:41;99763.31;;;9.64;100.00
9035;BME280;4552;43.422;24.592;2024-03-02T17:09:18;99770.31;;;9.60;100.00
9035;BME280;4552;43.422;24.592;2024-03-02T17:11:49;99778.13;;;9.63;100.00
9035;BME280;4552;43.422;24.592;2024-03-02T17:14:16;99773.03;;;9.54;100.00
9035;BME280;4552;43.422;24.592;2024-03-02T17:43:38;99781.75;;;9.53;100.00
9035;BME280;4552;43.422;24.592;2024-03-02T18:36:34;99793.00;;;9.58;100.00
9035;BME280;4552;43.422;24.592;2024-03-02T18:39:01;99800.00;;;9.56;100.00
9035;BME280;4552;43.422;24.592;2024-03-02T18:41:28;99795.63;;;9.57;100.00
9035;BME280;4552;43.422;24.592;2024-03-02T18:43:55;99784.41;;;9.50;100.00
9035;BME280;4552;43.422;24.592;2024-03-02T18:46:25;99801.69;;;9.60;100.00
9035;BME280;4552;43.422;24.592;2024-03-02T18:48:53;99795.63;;;9.55;100.00
9035;BME280;4552;43.422;24.592;2024-03-02T18:51:20;99806.09;;;9.55;100.00
9035;BME280;4552;43.422;24.592;2024-03-02T18:53:49;99797.41;;;9.55;100.00
9035;BME280;4552;43.422;24.592;2024-03-02T18:56:18;99781.03;;;9.39;100.00
9035;BME280;4552;43.422;24.592;2024-03-02T18:58:46;99776.69;;;9.41;100.00
9035;BME280;4552;43.422;24.592;2024-03-02T19:07:56;99790.88;;;9.16;100.00
9035;BME280;4552;43.422;24.592;2024-03-02T19:10:24;99794.19;;;9.32;100.00
9035;BME280;4552;43.422;24.592;2024-03-02T19:12:53;99780.38;;;9.22;100.00
9035;BME280;4552;43.422;24.592;2024-03-02T19:19:16;99810.75;;;9.32;100.00
9035;BME280;4552;43.422;24.592;2024-03-02T19:21:43;99794.38;;;9.17;100.00
9035;BME280;4552;43.422;24.592;2024-03-02T19:24:11;99807.41;;;9.18;100.00
9035;BME280;4552;43.422;24.592;2024-03-02T19:26:39;99796.94;;;9.20;100.00
9035;BME280;4552;43.422;24.592;2024-03-02T19:29:06;99807.47;;;9.12;100.00
9035;BME280;4552;43.422;24.592;2024-03-02T19:31:34;99798.88;;;9.01;100.00
9035;BME280;4552;43.422;24.592;2024-03-02T19:34:02;99811.91;;;9.01;100.00
9035;BME280;4552;43.422;24.592;2024-03-02T19:36:29;99804.06;;;9.04;100.00
9035;BME280;4552;43.422;24.592;2024-03-02T19:38:56;99808.47;;;8.98;100.00
9035;BME280;4552;43.422;24.592;2024-03-02T19:41:23;99792.13;;;8.77;100.00
9035;BME280;4552;43.422;24.592;2024-03-02T19:43:52;99800.06;;;8.64;100.00
9035;BME280;4552;43.422;24.592;2024-03-02T19:46:23;99811.41;;;8.60;100.00
9035;BME280;4552;43.422;24.592;2024-03-02T19:48:50;99796.66;;;8.56;100.00
9035;BME280;4552;43.422;24.592;2024-03-02T19:51:17;99789.63;;;8.64;100.00
9035;BME280;4552;43.422;24.592;2024-03-02T19:54:04;99795.63;;;8.75;100.00
9035;BME280;4552;43.422;24.592;2024-03-02T19:56:48;99807.81;;;8.73;100.00
9035;BME280;4552;43.422;24.592;2024-03-02T19:59:19;99800.91;;;8.69;100.00
9035;BME280;4552;43.422;24.592;2024-03-02T21:49:32;99803.28;;;7.59;100.00
9035;BME280;4552;43.422;24.592;2024-03-02T21:51:59;99789.41;;;7.54;100.00
9035;BME280;4552;43.422;24.592;2024-03-02T21:54:27;99773.84;;;7.45;100.00
9035;BME280;4552;43.422;24.592;2024-03-02T21:56:54;99805.00;;;7.60;100.00
9035;BME280;4552;43.422;24.592;2024-03-02T21:59:21;99792.78;;;7.77;100.00
9035;BME280;4552;43.422;24.592;2024-03-02T22:01:49;99811.00;;;7.83;100.00
9035;BME280;4552;43.422;24.592;2024-03-02T22:04:16;99797.97;;;7.80;100.00
9035;BME280;4552;43.422;24.592;2024-03-02T22:06:44;99817.06;;;7.85;100.00
9035;BME280;4552;43.422;24.592;2024-03-02T22:09:11;99791.13;;;7.64;100.00
9035;BME280;4552;43.422;24.592;2024-03-02T22:11:39;99807.56;;;7.78;100.00
9035;BME280;4552;43.422;24.592;2024-03-02T22:14:06;99818.75;;;7.92;100.00
9035;BME280;4552;43.422;24.592;2024-03-02T22:40:08;99792.84;;;7.68;100.00
9035;BME280;4552;43.422;24.592;2024-03-02T22:42:36;99792.78;;;7.75;100.00
9035;BME280;4552;43.422;24.592;2024-03-02T22:45:04;99810.13;;;7.84;100.00
9035;BME280;4552;43.422;24.592;2024-03-02T22:50:52;99803.09;;;7.95;100.00
9035;BME280;4552;43.422;24.592;2024-03-02T22:53:19;99804.88;;;7.96;100.00
9035;BME280;4552;43.422;24.592;2024-03-02T22:55:47;99790.09;;;7.93;100.00
9035;BME280;4552;43.422;24.592;2024-03-02T22:58:14;99811.72;;;8.07;100.00
9035;BME280;4552;43.422;24.592;2024-03-02T23:11:08;99803.16;;;7.87;100.00
9035;BME280;4552;43.422;24.592;2024-03-02T23:13:36;99797.06;;;7.91;100.00
9035;BME280;4552;43.422;24.592;2024-03-02T23:16:04;99791.84;;;7.93;100.00
9035;BME280;4552;43.422;24.592;2024-03-02T23:18:31;99797.88;;;7.98;100.00
9035;BME280;4552;43.422;24.592;2024-03-02T23:20:57;99798.78;;;7.92;100.00
9035;BME280;4552;43.422;24.592;2024-03-02T23:23:24;99804.00;;;7.94;100.00
9035;BME280;4552;43.422;24.592;2024-03-02T23:25:51;99810.03;;;8.02;100.00
9035;BME280;4552;43.422;24.592;2024-03-02T23:28:20;99804.81;;;8.02;100.00
9035;BME280;4552;43.422;24.592;2024-03-02T23:30:46;99811.81;;;7.91;100.00
9035;BME280;4552;43.422;24.592;2024-03-02T23:33:13;99811.81;;;7.92;100.00
9035;BME280;4552;43.422;24.592;2024-03-02T23:35:40;99820.47;;;8.02;100.00
9035;BME280;4552;43.422;24.592;2024-03-02T23:38:07;99808.19;;;8.19;100.00
9035;BME280;4552;43.422;24.592;2024-03-02T23:40:34;99803.72;;;8.42;100.00
